createdAt,value
2017-08-12T00:01:44.861Z,15.60
2017-08-12T00:04:12.537Z,15.70
2017-08-12T00:06:40.175Z,15.60
2017-08-12T00:09:07.838Z,15.60
2017-08-12T00:11:35.469Z,15.60
2017-08-12T00:14:03.100Z,15.60
2017-08-12T00:16:30.761Z,15.60
2017-08-12T00:18:58.408Z,15.60
2017-08-12T00:21:26.044Z,15.60
2017-08-12T00:23:53.820Z,15.50
2017-08-12T00:26:21.448Z,15.50
2017-08-12T00:28:49.114Z,15.50
2017-08-12T00:31:16.777Z,15.60
2017-08-12T00:33:44.457Z,15.50
2017-08-12T00:36:12.084Z,15.40
2017-08-12T00:38:40.878Z,15.40
2017-08-12T00:41:08.528Z,15.40
2017-08-12T00:43:36.152Z,15.50
2017-08-12T00:46:04.589Z,15.30
2017-08-12T00:48:32.228Z,15.30
2017-08-12T00:50:59.936Z,15.20
2017-08-12T00:53:27.596Z,15.10
2017-08-12T00:55:55.236Z,15.10
2017-08-12T00:58:22.864Z,15.10
2017-08-12T01:00:50.656Z,15.00
2017-08-12T01:03:18.309Z,15.00
2017-08-12T01:05:45.944Z,15.00
2017-08-12T01:08:13.638Z,15.00
2017-08-12T01:10:42.044Z,14.90
2017-08-12T01:13:09.703Z,14.90
2017-08-12T01:15:37.364Z,14.90
2017-08-12T01:18:05.003Z,14.90
2017-08-12T01:20:32.658Z,14.90
2017-08-12T01:23:00.339Z,15.00
2017-08-12T01:25:27.982Z,14.90
2017-08-12T01:27:56.368Z,14.90
2017-08-12T01:30:24.081Z,14.90
2017-08-12T01:32:51.717Z,14.90
2017-08-12T01:35:19.599Z,14.80
2017-08-12T01:37:48.048Z,14.80
2017-08-12T01:40:16.455Z,14.80
2017-08-12T01:42:44.093Z,14.70
2017-08-12T01:45:11.754Z,14.70
2017-08-12T01:47:39.463Z,14.70
2017-08-12T01:50:07.855Z,14.50
2017-08-12T01:52:35.509Z,14.50
2017-08-12T01:55:03.149Z,14.50
2017-08-12T01:57:30.777Z,14.50
2017-08-12T01:59:58.438Z,14.50
2017-08-12T02:02:26.083Z,14.50
2017-08-12T02:04:53.719Z,14.50
2017-08-12T02:07:22.141Z,14.50
2017-08-12T02:09:49.808Z,14.40
2017-08-12T02:12:18.237Z,14.30
2017-08-12T02:14:45.865Z,14.20
2017-08-12T02:17:13.508Z,14.30
2017-08-12T02:19:47.032Z,14.20
2017-08-12T02:22:14.664Z,14.20
2017-08-12T02:24:42.332Z,14.20
2017-08-12T02:27:10.737Z,14.10
2017-08-12T02:29:38.383Z,14.20
2017-08-12T02:32:06.036Z,14.10
2017-08-12T02:34:33.671Z,14.00
2017-08-12T02:37:01.301Z,14.00
2017-08-12T02:39:29.822Z,13.80
2017-08-12T02:41:57.444Z,13.80
2017-08-12T02:44:25.082Z,13.80
2017-08-12T02:46:52.732Z,13.80
2017-08-12T02:49:20.356Z,13.80
2017-08-12T02:51:48.754Z,13.80
2017-08-12T02:54:16.432Z,13.70
2017-08-12T02:56:44.073Z,13.70
2017-08-12T02:59:11.695Z,13.60
2017-08-12T03:01:39.577Z,13.60
2017-08-12T03:04:07.205Z,13.60
2017-08-12T03:06:34.870Z,13.70
2017-08-12T03:09:02.548Z,13.70
2017-08-12T03:11:30.200Z,13.70
2017-08-12T03:13:57.830Z,13.80
2017-08-12T03:16:25.500Z,13.80
2017-08-12T03:18:53.227Z,13.90
2017-08-12T03:21:20.891Z,13.90
2017-08-12T03:23:48.552Z,14.00
2017-08-12T03:26:16.254Z,13.90
2017-08-12T03:28:43.905Z,13.90
2017-08-12T03:31:11.560Z,13.80
2017-08-12T03:33:39.179Z,13.80
2017-08-12T03:36:06.830Z,13.80
2017-08-12T03:38:34.504Z,13.70
2017-08-12T03:41:02.142Z,13.70
2017-08-12T03:43:29.924Z,13.70
2017-08-12T03:45:57.543Z,13.70
2017-08-12T03:48:25.211Z,13.60
2017-08-12T03:50:52.856Z,13.60
2017-08-12T03:53:21.241Z,13.70
2017-08-12T03:55:48.896Z,13.70
2017-08-12T03:58:16.804Z,13.70
2017-08-12T04:00:44.460Z,13.80
2017-08-12T04:03:12.856Z,13.90
2017-08-12T04:05:40.558Z,13.90
2017-08-12T04:08:08.220Z,14.00
2017-08-12T04:10:36.619Z,14.00
2017-08-12T04:13:04.299Z,13.90
2017-08-12T04:15:31.932Z,13.90
2017-08-12T04:17:59.608Z,13.90
2017-08-12T04:20:27.279Z,14.00
2017-08-12T04:22:54.895Z,14.00
2017-08-12T04:25:22.556Z,13.90
2017-08-12T04:27:50.956Z,14.00
2017-08-12T04:30:18.592Z,13.90
2017-08-12T04:32:46.264Z,14.00
2017-08-12T04:35:13.958Z,14.00
2017-08-12T04:37:41.622Z,14.00
2017-08-12T04:40:10.057Z,14.00
2017-08-12T04:42:37.682Z,13.90
2017-08-12T04:45:05.351Z,13.90
2017-08-12T04:47:32.979Z,13.80
2017-08-12T04:50:00.697Z,13.70
2017-08-12T04:52:28.334Z,13.80
2017-08-12T04:54:55.971Z,13.80
2017-08-12T04:57:23.629Z,13.70
2017-08-12T04:59:51.266Z,13.70
2017-08-12T05:02:18.970Z,13.70
2017-08-12T05:04:46.725Z,13.70
2017-08-12T05:07:14.367Z,13.70
2017-08-12T05:09:42.035Z,13.70
2017-08-12T05:12:09.814Z,13.70
2017-08-12T05:14:37.488Z,13.70
2017-08-12T05:17:05.111Z,13.60
2017-08-12T05:19:32.739Z,13.60
2017-08-12T05:22:01.213Z,13.60
2017-08-12T05:24:29.659Z,13.60
2017-08-12T05:26:58.103Z,13.70
2017-08-12T05:29:25.746Z,13.60
2017-08-12T05:31:54.169Z,13.80
2017-08-12T05:34:21.837Z,13.80
2017-08-12T05:36:49.495Z,13.90
2017-08-12T05:39:17.163Z,14.00
2017-08-12T05:41:44.798Z,14.10
2017-08-12T05:44:12.432Z,14.10
2017-08-12T05:46:40.121Z,14.10
2017-08-12T05:49:07.756Z,14.10
2017-08-12T05:51:35.619Z,14.10
2017-08-12T05:54:04.017Z,14.20
2017-08-12T05:56:31.651Z,14.20
2017-08-12T05:58:59.345Z,14.30
2017-08-12T06:01:26.986Z,14.30
2017-08-12T06:03:54.660Z,14.30
2017-08-12T06:06:22.284Z,14.40
2017-08-12T06:08:50.136Z,14.40
2017-08-12T06:11:17.803Z,14.40
2017-08-12T06:13:45.461Z,14.40
2017-08-12T06:16:13.135Z,14.40
2017-08-12T06:18:40.765Z,14.40
2017-08-12T06:21:09.172Z,14.30
2017-08-12T06:23:36.823Z,14.20
2017-08-12T06:26:04.456Z,14.30
2017-08-12T06:28:32.133Z,14.20
2017-08-12T06:30:59.940Z,14.30
2017-08-12T06:33:27.586Z,14.50
2017-08-12T06:35:55.248Z,14.50
2017-08-12T06:38:22.891Z,14.60
2017-08-12T06:40:50.692Z,14.60
2017-08-12T06:43:18.333Z,14.60
2017-08-12T06:45:46.622Z,14.70
2017-08-12T06:48:14.284Z,14.60
2017-08-12T06:50:43.483Z,14.60
2017-08-12T06:53:11.189Z,14.80
2017-08-12T06:55:39.672Z,15.00
2017-08-12T06:58:07.308Z,14.90
2017-08-12T07:00:34.972Z,15.00
2017-08-12T07:03:02.608Z,15.00
2017-08-12T07:05:31.190Z,15.50
2017-08-12T07:07:58.840Z,15.50
2017-08-12T07:10:26.666Z,15.90
2017-08-12T07:12:54.334Z,16.20
2017-08-12T07:15:21.964Z,16.20
2017-08-12T07:17:50.420Z,15.90
2017-08-12T07:20:18.850Z,15.90
2017-08-12T07:22:46.488Z,15.90
2017-08-12T07:25:14.150Z,16.00
2017-08-12T07:27:41.799Z,16.30
2017-08-12T07:30:09.487Z,16.80
2017-08-12T07:32:37.117Z,16.70
2017-08-12T07:35:05.519Z,16.60
2017-08-12T07:37:33.188Z,16.50
2017-08-12T07:40:01.015Z,16.80
2017-08-12T07:42:29.571Z,17.40
2017-08-12T07:44:57.969Z,17.50
2017-08-12T07:47:25.593Z,17.40
2017-08-12T07:49:53.232Z,17.90
2017-08-12T07:52:21.620Z,18.10
2017-08-12T07:54:49.280Z,18.00
2017-08-12T07:57:16.923Z,17.50
2017-08-12T07:59:44.570Z,17.20
2017-08-12T08:02:12.251Z,17.10
2017-08-12T08:04:40.007Z,16.80
2017-08-12T08:07:07.648Z,17.10
2017-08-12T08:09:35.281Z,17.60
2017-08-12T08:12:02.899Z,18.30
2017-08-12T08:14:30.642Z,18.20
2017-08-12T08:16:58.284Z,18.20
2017-08-12T08:19:25.924Z,19.00
2017-08-12T08:21:54.796Z,21.50
2017-08-12T08:24:23.349Z,21.40
2017-08-12T08:26:52.629Z,20.60
2017-08-12T08:29:21.778Z,19.60
2017-08-12T08:31:50.270Z,19.50
2017-08-12T08:34:18.281Z,19.90
2017-08-12T08:36:47.676Z,20.40
2017-08-12T08:39:16.271Z,20.40
2017-08-12T08:41:46.475Z,19.50
2017-08-12T08:44:14.441Z,19.40
2017-08-12T08:46:42.688Z,18.80
2017-08-12T08:49:11.361Z,19.90
2017-08-12T08:51:40.587Z,21.20
2017-08-12T08:54:09.390Z,21.20
2017-08-12T08:56:38.692Z,21.70
2017-08-12T08:59:07.169Z,22.60
2017-08-12T09:01:35.977Z,22.30
2017-08-12T09:04:05.226Z,21.20
2017-08-12T09:06:33.416Z,21.10
2017-08-12T09:09:01.284Z,20.60
2017-08-12T09:11:30.014Z,20.70
2017-08-12T09:13:58.362Z,21.80
2017-08-12T09:16:26.720Z,21.70
2017-08-12T09:18:54.714Z,21.30
2017-08-12T09:21:23.359Z,20.50
2017-08-12T09:23:58.111Z,19.90
2017-08-12T09:26:31.446Z,20.30
2017-08-12T09:29:05.959Z,21.80
2017-08-12T09:31:39.337Z,21.20
2017-08-12T09:34:17.150Z,21.20
2017-08-12T09:36:55.503Z,20.30
2017-08-12T09:39:33.075Z,19.60
2017-08-12T09:42:09.664Z,19.40
2017-08-12T09:44:44.228Z,19.40
2017-08-12T09:47:19.755Z,19.40
2017-08-12T09:49:58.410Z,20.10
2017-08-12T09:52:37.534Z,20.00
2017-08-12T09:55:16.914Z,19.80
2017-08-12T09:57:51.963Z,19.70
2017-08-12T10:00:28.061Z,19.30
2017-08-12T10:03:09.384Z,19.00
2017-08-12T10:05:48.988Z,18.40
2017-08-12T10:08:17.883Z,18.30
2017-08-12T10:10:46.287Z,18.50
2017-08-12T10:13:13.902Z,18.50
2017-08-12T10:15:42.277Z,19.10
2017-08-12T10:18:10.060Z,19.00
2017-08-12T10:20:44.340Z,19.00
2017-08-12T10:23:18.503Z,19.10
2017-08-12T10:25:52.571Z,19.10
2017-08-12T10:28:29.564Z,19.40
2017-08-12T10:31:05.525Z,19.80
2017-08-12T10:33:38.888Z,19.70
2017-08-12T10:36:14.707Z,20.70
2017-08-12T10:38:47.659Z,21.20
2017-08-12T10:41:16.008Z,21.00
2017-08-12T10:43:43.614Z,20.60
2017-08-12T10:46:23.601Z,19.90
2017-08-12T10:48:51.996Z,19.80
2017-08-12T10:51:20.040Z,19.90
2017-08-12T10:53:58.187Z,19.90
2017-08-12T10:56:37.999Z,20.60
2017-08-12T10:59:16.731Z,20.50
2017-08-12T11:01:54.991Z,20.20
2017-08-12T11:04:24.874Z,20.00
2017-08-12T11:06:53.420Z,20.10
2017-08-12T11:09:21.171Z,20.10
2017-08-12T11:11:48.788Z,19.90
2017-08-12T11:14:16.525Z,19.50
2017-08-12T11:16:44.137Z,19.20
2017-08-12T11:19:12.544Z,19.50
2017-08-12T11:21:40.148Z,19.50
2017-08-12T11:24:07.745Z,19.40
2017-08-12T11:26:35.387Z,19.40
2017-08-12T11:29:03.004Z,19.40
2017-08-12T11:31:30.751Z,19.70
2017-08-12T11:33:58.365Z,20.00
2017-08-12T11:36:25.988Z,20.00
2017-08-12T11:38:53.639Z,19.90
2017-08-12T11:41:21.259Z,19.90
2017-08-12T11:43:48.903Z,19.70
2017-08-12T11:46:17.369Z,19.80
2017-08-12T11:48:44.972Z,19.80
2017-08-12T11:51:13.379Z,20.00
2017-08-12T11:53:41.031Z,19.90
2017-08-12T11:56:08.683Z,19.90
2017-08-12T11:58:36.302Z,19.90
2017-08-12T12:01:03.911Z,20.10
2017-08-12T12:03:31.555Z,20.30
2017-08-12T12:05:59.184Z,20.30
2017-08-12T12:08:26.820Z,20.30
2017-08-12T12:10:54.445Z,20.30
2017-08-12T12:13:22.066Z,19.90
2017-08-12T12:15:50.507Z,19.50
2017-08-12T12:18:18.138Z,19.40
2017-08-12T12:20:46.575Z,19.20
2017-08-12T12:23:14.184Z,19.20
2017-08-12T12:25:42.410Z,19.00
2017-08-12T12:28:10.128Z,18.90
2017-08-12T12:30:37.768Z,18.70
2017-08-12T12:33:05.407Z,18.60
2017-08-12T12:35:33.050Z,18.60
2017-08-12T12:38:00.732Z,18.50
2017-08-12T12:40:28.392Z,18.30
2017-08-12T12:42:56.811Z,18.20
2017-08-12T12:45:24.508Z,18.20
2017-08-12T12:47:52.908Z,18.20
2017-08-12T12:50:21.045Z,18.10
2017-08-12T12:52:48.739Z,18.10
2017-08-12T12:55:17.181Z,18.20
2017-08-12T12:57:44.864Z,18.30
2017-08-12T13:00:12.509Z,18.40
2017-08-12T13:02:41.113Z,18.50
2017-08-12T13:05:09.699Z,18.90
2017-08-12T13:07:37.348Z,18.90
2017-08-12T13:10:05.752Z,19.10
2017-08-12T13:12:33.369Z,19.10
2017-08-12T13:15:01.749Z,19.50
2017-08-12T13:17:29.579Z,19.50
2017-08-12T13:20:00.263Z,19.90
2017-08-12T13:22:30.491Z,20.00
2017-08-12T13:24:59.457Z,19.90
2017-08-12T13:27:28.371Z,19.90
2017-08-12T13:29:56.622Z,19.60
2017-08-12T13:32:25.483Z,19.40
2017-08-12T13:34:55.235Z,19.30
2017-08-12T13:37:23.175Z,19.10
2017-08-12T13:39:53.377Z,19.00
2017-08-12T13:42:21.701Z,18.80
2017-08-12T13:44:50.410Z,18.50
2017-08-12T13:47:19.206Z,18.40
2017-08-12T13:49:48.025Z,18.20
2017-08-12T13:52:16.833Z,18.10
2017-08-12T13:54:46.931Z,18.00
2017-08-12T13:57:15.490Z,17.80
2017-08-12T13:59:44.354Z,17.80
2017-08-12T14:02:13.887Z,17.60
2017-08-12T14:04:42.834Z,17.60
2017-08-12T14:07:10.749Z,17.70
2017-08-12T14:09:40.859Z,18.10
2017-08-12T14:12:08.694Z,18.10
2017-08-12T14:14:36.329Z,18.40
2017-08-12T14:17:05.998Z,18.50
2017-08-12T14:19:42.483Z,18.60
2017-08-12T14:22:13.480Z,18.70
2017-08-12T14:24:42.636Z,18.90
2017-08-12T14:27:10.329Z,18.80
2017-08-12T14:29:37.934Z,19.00
2017-08-12T14:32:05.590Z,19.00
2017-08-12T14:34:33.206Z,19.00
2017-08-12T14:37:02.635Z,19.10
2017-08-12T14:39:30.244Z,19.00
2017-08-12T14:41:58.627Z,18.90
2017-08-12T14:44:26.258Z,18.90
2017-08-12T14:46:54.641Z,18.90
2017-08-12T14:49:22.304Z,18.90
2017-08-12T14:51:50.181Z,18.90
2017-08-12T14:54:18.038Z,18.80
2017-08-12T14:56:46.473Z,18.80
2017-08-12T14:59:14.370Z,18.70
2017-08-12T15:01:42.012Z,18.80
2017-08-12T15:04:09.649Z,18.90
2017-08-12T15:06:37.307Z,19.10
2017-08-12T15:09:04.988Z,19.20
2017-08-12T15:11:32.608Z,19.20
2017-08-12T15:14:01.077Z,19.00
2017-08-12T15:16:28.715Z,19.00
2017-08-12T15:18:57.088Z,19.00
2017-08-12T15:21:25.520Z,19.00
2017-08-12T15:23:53.136Z,19.00
2017-08-12T15:26:20.793Z,18.90
2017-08-12T15:28:48.408Z,18.90
2017-08-12T15:31:16.032Z,18.80
2017-08-12T15:33:44.451Z,18.80
2017-08-12T15:36:12.071Z,18.70
2017-08-12T15:38:39.871Z,18.80
2017-08-12T15:41:07.496Z,18.70
2017-08-12T15:43:35.099Z,18.60
2017-08-12T15:46:02.774Z,18.60
2017-08-12T15:48:30.428Z,18.60
2017-08-12T15:50:58.124Z,18.60
2017-08-12T15:53:26.514Z,18.60
2017-08-12T15:55:54.138Z,18.60
2017-08-12T15:58:22.548Z,18.60
2017-08-12T16:00:50.183Z,18.60
2017-08-12T16:03:17.860Z,18.50
2017-08-12T16:05:45.497Z,18.60
2017-08-12T16:08:13.129Z,18.60
2017-08-12T16:10:40.797Z,18.70
2017-08-12T16:13:08.562Z,18.60
2017-08-12T16:15:36.203Z,18.70
2017-08-12T16:18:03.863Z,18.80
2017-08-12T16:20:31.469Z,18.70
2017-08-12T16:22:59.147Z,18.70
2017-08-12T16:25:26.771Z,18.80
2017-08-12T16:27:54.454Z,18.80
2017-08-12T16:30:22.074Z,18.90
2017-08-12T16:32:49.739Z,19.00
2017-08-12T16:35:17.392Z,19.00
2017-08-12T16:37:45.058Z,19.00
2017-08-12T16:40:13.552Z,18.90
2017-08-12T16:42:41.234Z,18.90
2017-08-12T16:45:08.975Z,19.00
2017-08-12T16:47:37.724Z,18.90
2017-08-12T16:50:05.570Z,18.90
2017-08-12T16:52:34.288Z,19.00
2017-08-12T16:55:02.312Z,18.90
2017-08-12T16:57:31.056Z,18.70
2017-08-12T16:59:58.999Z,18.70
2017-08-12T17:02:26.843Z,18.70
2017-08-12T17:04:54.636Z,18.70
2017-08-12T17:07:22.403Z,18.70
2017-08-12T17:09:51.056Z,18.50
2017-08-12T17:12:19.077Z,18.50
2017-08-12T17:14:46.883Z,18.40
2017-08-12T17:17:14.685Z,18.30
2017-08-12T17:19:42.535Z,18.30
2017-08-12T17:22:10.420Z,18.40
2017-08-12T17:24:38.222Z,18.40
2017-08-12T17:27:05.972Z,18.20
2017-08-12T17:29:33.787Z,18.10
2017-08-12T17:32:01.502Z,18.00
2017-08-12T17:34:29.158Z,17.90
2017-08-12T17:36:56.803Z,17.90
2017-08-12T17:39:24.451Z,17.70
2017-08-12T17:41:52.129Z,17.60
2017-08-12T17:44:19.915Z,17.60
2017-08-12T17:46:47.552Z,17.60
2017-08-12T17:49:15.233Z,17.70
2017-08-12T17:51:42.878Z,17.80
2017-08-12T17:54:10.704Z,17.80
2017-08-12T17:56:38.374Z,17.70
2017-08-12T17:59:06.038Z,17.70
2017-08-12T18:01:33.718Z,17.70
2017-08-12T18:04:01.335Z,17.70
2017-08-12T18:06:29.102Z,17.90
2017-08-12T18:08:57.532Z,17.70
2017-08-12T18:11:25.209Z,17.70
2017-08-12T18:13:52.921Z,17.60
2017-08-12T18:16:20.643Z,17.60
2017-08-12T18:18:48.315Z,17.50
2017-08-12T18:21:15.958Z,17.50
2017-08-12T18:23:43.608Z,17.40
2017-08-12T18:26:11.971Z,17.40
2017-08-12T18:28:40.003Z,17.40
2017-08-12T18:31:07.792Z,17.40
2017-08-12T18:33:35.555Z,17.40
2017-08-12T18:36:03.213Z,17.50
2017-08-12T18:38:30.941Z,17.30
2017-08-12T18:40:58.651Z,17.30
2017-08-12T18:43:26.501Z,17.30
2017-08-12T18:45:54.263Z,17.30
2017-08-12T18:48:22.087Z,17.20
2017-08-12T18:50:50.868Z,17.20
2017-08-12T18:53:18.639Z,17.20
2017-08-12T18:55:46.471Z,17.30
2017-08-12T18:58:14.281Z,17.30
2017-08-12T19:00:42.724Z,17.40
2017-08-12T19:03:10.389Z,17.40
2017-08-12T19:05:38.051Z,17.50
2017-08-12T19:08:05.738Z,17.50
2017-08-12T19:10:33.375Z,17.50
2017-08-12T19:13:01.122Z,17.50
2017-08-12T19:18:05.747Z,17.60
2017-08-12T19:20:33.651Z,17.60
2017-08-12T19:23:01.441Z,17.60
2017-08-12T19:25:29.266Z,17.60
2017-08-12T19:27:57.901Z,17.60
2017-08-12T19:30:26.492Z,17.60
2017-08-12T19:32:54.358Z,17.50
2017-08-12T19:35:22.046Z,17.60
2017-08-12T19:37:49.710Z,17.60
2017-08-12T19:40:17.564Z,17.60
2017-08-12T19:42:45.330Z,17.60
2017-08-12T19:45:13.217Z,17.60
2017-08-12T19:47:40.972Z,17.60
2017-08-12T19:50:08.785Z,17.60
2017-08-12T19:52:36.647Z,17.50
2017-08-12T19:55:04.446Z,17.50
2017-08-12T19:57:32.330Z,17.50
2017-08-12T20:00:00.229Z,17.50
2017-08-12T20:02:27.932Z,17.40
2017-08-12T20:04:56.493Z,17.40
2017-08-12T20:07:24.249Z,17.40
2017-08-12T20:09:52.925Z,17.40
2017-08-12T20:12:20.791Z,17.30
2017-08-12T20:14:49.333Z,17.30
2017-08-12T20:17:17.185Z,17.30
2017-08-12T20:19:44.912Z,17.30
2017-08-12T20:22:12.778Z,17.30
2017-08-12T20:24:40.592Z,17.20
2017-08-12T20:27:08.389Z,17.20
2017-08-12T20:29:36.179Z,17.20
2017-08-12T20:32:03.876Z,17.20
2017-08-12T20:34:31.716Z,17.30
2017-08-12T20:36:59.567Z,17.10
2017-08-12T20:39:27.328Z,17.10
2017-08-12T20:41:55.038Z,17.00
2017-08-12T20:44:22.667Z,17.00
2017-08-12T20:46:50.343Z,16.90
2017-08-12T20:49:18.009Z,16.80
2017-08-12T20:51:45.630Z,16.80
2017-08-12T20:54:13.297Z,16.80
2017-08-12T20:56:41.293Z,16.90
2017-08-12T20:59:08.985Z,16.90
2017-08-12T21:01:37.481Z,16.80
2017-08-12T21:04:05.141Z,16.70
2017-08-12T21:06:32.936Z,16.80
2017-08-12T21:09:00.752Z,16.70
2017-08-12T21:11:28.430Z,16.70
2017-08-12T21:13:56.079Z,16.70
2017-08-12T21:16:23.712Z,16.70
2017-08-12T21:18:52.162Z,16.70
2017-08-12T21:21:20.703Z,16.80
2017-08-12T21:23:48.363Z,16.70
2017-08-12T21:26:16.030Z,16.80
2017-08-12T21:28:43.675Z,16.80
2017-08-12T21:31:12.131Z,16.80
2017-08-12T21:33:39.812Z,16.80
2017-08-12T21:36:07.487Z,16.80
2017-08-12T21:38:35.132Z,16.70
2017-08-12T21:41:02.873Z,16.70
2017-08-12T21:43:30.617Z,16.60
2017-08-12T21:45:58.268Z,16.70
2017-08-12T21:48:26.048Z,16.70
2017-08-12T21:50:53.708Z,16.70
2017-08-12T21:53:21.353Z,16.70
2017-08-12T21:55:49.085Z,16.80
2017-08-12T21:58:16.905Z,16.80
2017-08-12T22:00:44.679Z,16.80
2017-08-12T22:03:12.674Z,16.80
2017-08-12T22:05:40.309Z,16.90
2017-08-12T22:08:07.980Z,16.90
2017-08-12T22:10:36.405Z,16.80
2017-08-12T22:13:04.092Z,16.70
2017-08-12T22:15:32.483Z,16.70
2017-08-12T22:18:00.116Z,16.60
2017-08-12T22:20:28.924Z,16.60
2017-08-12T22:22:56.737Z,16.60
2017-08-12T22:25:24.409Z,16.60
2017-08-12T22:27:52.043Z,16.60
2017-08-12T22:30:19.722Z,16.60
2017-08-12T22:32:47.384Z,16.60
2017-08-12T22:35:15.026Z,16.70
2017-08-12T22:37:42.732Z,16.70
2017-08-12T22:40:10.429Z,16.60
2017-08-12T22:42:38.144Z,16.70
2017-08-12T22:45:05.816Z,16.70
2017-08-12T22:47:33.597Z,16.70
2017-08-12T22:50:02.099Z,16.70
2017-08-12T22:52:30.010Z,16.70
2017-08-12T22:54:58.468Z,16.80
2017-08-12T22:57:26.146Z,16.70
2017-08-12T22:59:53.783Z,16.80
2017-08-12T23:02:21.439Z,16.80
2017-08-12T23:04:49.131Z,16.80
2017-08-12T23:07:16.777Z,16.90
2017-08-12T23:09:44.435Z,16.80
2017-08-12T23:12:12.087Z,16.80
2017-08-12T23:14:39.962Z,16.90
2017-08-12T23:17:08.360Z,16.90
2017-08-12T23:19:35.993Z,16.80
2017-08-12T23:22:03.675Z,16.90
2017-08-12T23:24:31.320Z,16.90
2017-08-12T23:26:59.119Z,16.90
2017-08-12T23:29:27.512Z,16.90
2017-08-12T23:31:55.157Z,16.80
2017-08-12T23:34:22.819Z,16.80
2017-08-12T23:36:50.661Z,16.80
2017-08-12T23:39:18.335Z,16.80
2017-08-12T23:41:45.978Z,16.80
2017-08-12T23:44:13.615Z,16.80
2017-08-12T23:46:41.300Z,16.80
2017-08-12T23:49:09.013Z,16.80
2017-08-12T23:51:36.774Z,16.70
2017-08-12T23:54:04.421Z,16.70
2017-08-12T23:56:32.046Z,16.70
2017-08-12T23:59:00.047Z,16.70
